createdAt,value
2018-12-18T00:00:33.589Z,0.00
2018-12-18T00:01:35.194Z,0.00
2018-12-18T00:02:35.654Z,0.00
2018-12-18T00:03:39.450Z,0.00
2018-12-18T00:04:37.721Z,0.00
2018-12-18T00:05:38.282Z,0.00
2018-12-18T00:06:38.755Z,0.00
2018-12-18T00:07:39.305Z,0.00
2018-12-18T00:08:39.809Z,0.00
2018-12-18T00:09:40.348Z,0.00
2018-12-18T00:10:40.846Z,0.00
2018-12-18T00:11:41.375Z,0.00
2018-12-18T00:12:41.864Z,0.00
2018-12-18T00:13:42.411Z,0.00
2018-12-18T00:14:42.885Z,0.00
2018-12-18T00:15:43.453Z,0.00
2018-12-18T00:16:43.941Z,0.00
2018-12-18T00:17:44.489Z,0.00
2018-12-18T00:18:44.964Z,0.00
2018-12-18T00:19:45.538Z,0.00
2018-12-18T00:20:46.012Z,0.00
2018-12-18T00:21:46.562Z,0.00
2018-12-18T00:22:47.045Z,0.00
2018-12-18T00:23:47.612Z,0.00
2018-12-18T00:24:48.094Z,0.00
2018-12-18T00:25:48.640Z,0.00
2018-12-18T00:26:49.146Z,0.00
2018-12-18T00:27:49.690Z,0.00
2018-12-18T00:28:50.169Z,0.00
2018-12-18T00:29:50.723Z,0.00
2018-12-18T00:30:51.205Z,0.00
2018-12-18T00:31:51.748Z,0.00
2018-12-18T00:32:52.220Z,0.00
2018-12-18T00:33:53.823Z,0.00
2018-12-18T00:34:54.296Z,0.00
2018-12-18T00:35:54.846Z,0.00
2018-12-18T00:36:55.317Z,0.00
2018-12-18T00:37:55.881Z,0.00
2018-12-18T00:38:56.368Z,0.00
2018-12-18T00:39:56.932Z,0.00
2018-12-18T00:40:57.390Z,0.00
2018-12-18T00:41:57.998Z,0.00
2018-12-18T00:42:58.453Z,0.00
2018-12-18T00:44:00.011Z,0.00
2018-12-18T00:45:00.523Z,0.00
2018-12-18T00:46:02.068Z,0.00
2018-12-18T00:47:02.558Z,0.00
2018-12-18T00:48:03.114Z,0.00
2018-12-18T00:49:03.590Z,0.00
2018-12-18T00:50:05.202Z,0.00
2018-12-18T00:51:05.674Z,0.00
2018-12-18T00:52:06.214Z,0.00
2018-12-18T00:53:06.695Z,0.00
2018-12-18T00:54:08.270Z,0.00
2018-12-18T00:55:08.756Z,0.00
2018-12-18T00:56:09.312Z,0.00
2018-12-18T00:57:09.807Z,0.00
2018-12-18T00:58:10.344Z,0.00
2018-12-18T00:59:10.842Z,0.00
2018-12-18T01:00:11.386Z,0.00
2018-12-18T01:01:11.874Z,0.00
2018-12-18T01:02:12.432Z,0.00
2018-12-18T01:03:12.909Z,0.00
2018-12-18T01:04:13.478Z,0.00
2018-12-18T01:05:13.967Z,0.00
2018-12-18T01:06:14.504Z,0.00
2018-12-18T01:07:14.975Z,0.00
2018-12-18T01:08:16.585Z,0.00
2018-12-18T01:09:17.037Z,0.00
2018-12-18T01:10:17.602Z,0.00
2018-12-18T01:11:18.084Z,0.00
2018-12-18T01:12:18.651Z,0.00
2018-12-18T01:13:19.110Z,0.00
2018-12-18T01:14:19.662Z,0.00
2018-12-18T01:15:20.148Z,0.00
2018-12-18T01:16:20.711Z,0.00
2018-12-18T01:17:21.184Z,0.00
2018-12-18T01:18:21.750Z,0.00
2018-12-18T01:19:22.241Z,0.00
2018-12-18T01:20:22.775Z,0.00
2018-12-18T01:21:23.282Z,0.00
2018-12-18T01:22:23.809Z,0.00
2018-12-18T01:23:24.309Z,0.00
2018-12-18T01:24:24.849Z,0.00
2018-12-18T01:25:25.327Z,0.00
2018-12-18T01:26:25.874Z,0.00
2018-12-18T01:27:26.364Z,0.00
2018-12-18T01:28:26.935Z,0.00
2018-12-18T01:29:27.423Z,0.00
2018-12-18T01:30:27.974Z,0.00
2018-12-18T01:31:28.455Z,0.00
2018-12-18T01:32:29.023Z,0.00
2018-12-18T01:33:29.483Z,0.00
2018-12-18T01:34:30.034Z,0.00
2018-12-18T01:35:30.524Z,0.00
2018-12-18T01:36:31.069Z,0.00
2018-12-18T01:37:31.586Z,0.00
2018-12-18T01:38:32.116Z,0.00
2018-12-18T01:39:32.605Z,0.00
2018-12-18T01:40:34.172Z,0.00
2018-12-18T01:41:34.666Z,0.00
2018-12-18T01:42:35.215Z,0.00
2018-12-18T01:43:35.678Z,0.00
2018-12-18T01:44:36.248Z,0.00
2018-12-18T01:45:36.729Z,0.00
2018-12-18T01:46:37.285Z,0.00
2018-12-18T01:47:37.762Z,0.00
2018-12-18T01:48:38.319Z,0.00
2018-12-18T01:49:38.816Z,0.00
2018-12-18T01:50:40.380Z,0.00
2018-12-18T01:51:40.858Z,0.00
2018-12-18T01:52:41.415Z,0.00
2018-12-18T01:53:41.917Z,0.00
2018-12-18T01:54:42.518Z,0.00
2018-12-18T01:55:42.949Z,0.00
2018-12-18T01:56:43.491Z,0.00
2018-12-18T01:57:43.987Z,0.00
2018-12-18T01:58:44.528Z,0.00
2018-12-18T01:59:45.006Z,0.00
2018-12-18T02:00:47.516Z,0.00
2018-12-18T02:01:48.000Z,0.00
2018-12-18T02:02:48.553Z,0.00
2018-12-18T02:03:49.050Z,0.00
2018-12-18T02:04:50.610Z,0.00
2018-12-18T02:05:51.099Z,0.00
2018-12-18T02:06:51.739Z,0.00
2018-12-18T02:07:52.231Z,0.00
2018-12-18T02:08:52.775Z,0.00
2018-12-18T02:09:53.257Z,0.00
2018-12-18T02:10:54.845Z,0.00
2018-12-18T02:11:55.366Z,0.00
2018-12-18T02:12:55.883Z,0.00
2018-12-18T02:13:56.354Z,0.00
2018-12-18T02:14:56.925Z,0.00
2018-12-18T02:15:57.400Z,0.00
2018-12-18T02:16:57.978Z,0.00
2018-12-18T02:17:58.445Z,0.00
2018-12-18T02:19:00.023Z,0.00
2018-12-18T02:20:00.513Z,0.00
2018-12-18T02:21:01.065Z,0.00
2018-12-18T02:22:01.543Z,0.00
2018-12-18T02:23:02.095Z,0.00
2018-12-18T02:24:02.588Z,0.00
2018-12-18T02:25:03.127Z,0.00
2018-12-18T02:26:03.637Z,0.00
2018-12-18T02:27:04.165Z,0.00
2018-12-18T02:28:04.664Z,0.00
2018-12-18T02:29:06.237Z,0.00
2018-12-18T02:30:06.691Z,0.00
2018-12-18T02:31:07.276Z,0.00
2018-12-18T02:32:07.759Z,0.00
2018-12-18T02:33:09.339Z,0.00
2018-12-18T02:34:13.667Z,0.00
2018-12-18T02:35:10.391Z,0.00
2018-12-18T02:36:10.838Z,0.00
2018-12-18T02:37:11.422Z,0.00
2018-12-18T02:38:11.889Z,0.00
2018-12-18T02:39:13.457Z,0.00
2018-12-18T02:40:13.930Z,0.00
2018-12-18T02:41:14.486Z,0.00
2018-12-18T02:42:15.013Z,0.00
2018-12-18T02:43:15.528Z,0.00
2018-12-18T02:44:16.026Z,0.00
2018-12-18T02:45:18.519Z,0.00
2018-12-18T02:46:18.994Z,0.00
2018-12-18T02:47:19.554Z,0.00
2018-12-18T02:48:20.035Z,0.00
2018-12-18T02:49:20.606Z,0.00
2018-12-18T02:50:21.087Z,0.00
2018-12-18T02:51:21.631Z,0.00
2018-12-18T02:52:22.093Z,0.00
2018-12-18T02:53:22.667Z,0.00
2018-12-18T02:54:23.155Z,0.00
2018-12-18T02:55:23.694Z,0.00
2018-12-18T02:56:24.195Z,0.00
2018-12-18T02:57:24.732Z,0.00
2018-12-18T02:58:25.215Z,0.00
2018-12-18T02:59:25.777Z,0.00
2018-12-18T03:00:26.268Z,0.00
2018-12-18T03:01:26.811Z,0.00
2018-12-18T03:02:27.302Z,0.00
2018-12-18T03:03:28.878Z,0.00
2018-12-18T03:04:29.376Z,0.00
2018-12-18T03:05:30.936Z,0.00
2018-12-18T03:06:31.418Z,0.00
2018-12-18T03:07:31.987Z,0.00
2018-12-18T03:08:32.478Z,0.00
2018-12-18T03:09:33.012Z,0.00
2018-12-18T03:10:33.486Z,0.00
2018-12-18T03:11:34.051Z,0.00
2018-12-18T03:12:34.538Z,0.00
2018-12-18T03:13:36.122Z,0.00
2018-12-18T03:14:36.610Z,0.00
2018-12-18T03:15:37.147Z,0.00
2018-12-18T03:16:37.637Z,0.00
2018-12-18T03:17:38.185Z,0.00
2018-12-18T03:18:38.672Z,0.00
2018-12-18T03:19:39.211Z,0.00
2018-12-18T03:20:39.693Z,0.00
2018-12-18T03:21:40.243Z,0.00
2018-12-18T03:22:40.765Z,0.00
2018-12-18T03:23:43.268Z,0.00
2018-12-18T03:24:43.745Z,0.00
2018-12-18T03:25:44.267Z,0.00
2018-12-18T03:26:44.748Z,0.00
2018-12-18T03:27:45.318Z,0.00
2018-12-18T03:28:45.790Z,0.00
2018-12-18T03:29:47.386Z,0.00
2018-12-18T03:30:47.870Z,0.00
2018-12-18T03:31:49.457Z,0.00
2018-12-18T03:32:49.930Z,0.00
2018-12-18T03:33:50.473Z,0.00
2018-12-18T03:34:50.980Z,0.00
2018-12-18T03:35:51.500Z,0.00
2018-12-18T03:36:51.985Z,0.00
2018-12-18T03:37:52.554Z,0.00
2018-12-18T03:38:53.679Z,0.00
2018-12-18T03:39:54.205Z,0.00
2018-12-18T03:40:54.681Z,0.00
2018-12-18T03:41:55.220Z,0.00
2018-12-18T03:42:55.706Z,0.00
2018-12-18T03:43:56.275Z,0.00
2018-12-18T03:44:56.743Z,0.00
2018-12-18T03:45:58.319Z,0.00
2018-12-18T03:46:58.827Z,0.00
2018-12-18T03:47:59.359Z,0.00
2018-12-18T03:48:59.855Z,0.00
2018-12-18T03:50:01.434Z,0.00
2018-12-18T03:51:01.916Z,0.00
2018-12-18T03:52:02.458Z,0.00
2018-12-18T03:53:02.944Z,0.00
2018-12-18T03:54:04.516Z,0.00
2018-12-18T03:55:04.997Z,0.00
2018-12-18T03:56:05.545Z,0.00
2018-12-18T03:57:06.043Z,0.00
2018-12-18T03:58:07.609Z,0.00
2018-12-18T03:59:08.112Z,0.00
2018-12-18T04:00:08.655Z,0.00
2018-12-18T04:01:09.148Z,0.00
2018-12-18T04:02:16.246Z,0.00
2018-12-18T04:03:17.676Z,0.00
2018-12-18T04:04:18.208Z,0.00
2018-12-18T04:05:18.699Z,0.00
2018-12-18T04:06:19.256Z,0.00
2018-12-18T04:07:19.742Z,0.00
2018-12-18T04:08:20.302Z,0.00
2018-12-18T04:09:20.842Z,0.00
2018-12-18T04:10:21.341Z,0.00
2018-12-18T04:11:21.834Z,0.00
2018-12-18T04:12:23.393Z,0.00
2018-12-18T04:13:23.858Z,0.00
2018-12-18T04:14:24.429Z,0.00
2018-12-18T04:15:24.898Z,0.00
2018-12-18T04:16:25.445Z,0.00
2018-12-18T04:17:25.943Z,0.00
2018-12-18T04:18:26.490Z,0.00
2018-12-18T04:19:26.970Z,0.00
2018-12-18T04:20:28.554Z,0.00
2018-12-18T04:21:29.667Z,0.00
2018-12-18T04:22:30.194Z,0.00
2018-12-18T04:23:30.688Z,0.00
2018-12-18T04:24:31.256Z,0.00
2018-12-18T04:25:31.731Z,0.00
2018-12-18T04:26:32.266Z,0.00
2018-12-18T04:27:32.751Z,0.00
2018-12-18T04:28:33.317Z,0.00
2018-12-18T04:29:34.671Z,0.00
2018-12-18T04:30:35.259Z,0.00
2018-12-18T04:31:35.750Z,0.00
2018-12-18T04:32:36.307Z,0.00
2018-12-18T04:33:36.805Z,0.00
2018-12-18T04:34:42.900Z,0.00
2018-12-18T04:35:37.832Z,0.00
2018-12-18T04:36:38.370Z,0.00
2018-12-18T04:37:38.866Z,0.00
2018-12-18T04:38:40.456Z,0.00
2018-12-18T04:39:40.923Z,0.00
2018-12-18T04:40:43.522Z,0.00
2018-12-18T04:41:44.032Z,0.00
2018-12-18T04:42:45.594Z,0.00
2018-12-18T04:43:46.066Z,0.00
2018-12-18T04:44:46.625Z,0.00
2018-12-18T04:45:47.106Z,0.00
2018-12-18T04:46:47.678Z,0.00
2018-12-18T04:47:48.142Z,0.00
2018-12-18T04:48:48.718Z,0.00
2018-12-18T04:49:49.183Z,0.00
2018-12-18T04:50:49.723Z,0.00
2018-12-18T04:51:50.210Z,0.00
2018-12-18T04:52:50.777Z,0.00
2018-12-18T04:53:51.249Z,0.00
2018-12-18T04:54:51.819Z,0.00
2018-12-18T04:55:52.308Z,0.00
2018-12-18T04:56:59.707Z,0.00
2018-12-18T04:58:00.192Z,0.00
2018-12-18T04:59:00.761Z,0.00
2018-12-18T05:00:01.241Z,0.00
2018-12-18T05:01:01.777Z,0.00
2018-12-18T05:02:02.278Z,0.00
2018-12-18T05:03:02.811Z,0.00
2018-12-18T05:04:03.989Z,0.00
2018-12-18T05:05:03.853Z,0.00
2018-12-18T05:06:04.340Z,0.00
2018-12-18T05:07:04.939Z,0.00
2018-12-18T05:08:05.398Z,0.00
2018-12-18T05:09:06.985Z,0.00
2018-12-18T05:10:07.471Z,0.00
2018-12-18T05:11:07.992Z,0.00
2018-12-18T05:12:08.518Z,0.00
2018-12-18T05:13:09.132Z,0.00
2018-12-18T05:14:09.621Z,0.00
2018-12-18T05:15:10.198Z,0.00
2018-12-18T05:16:10.654Z,0.00
2018-12-18T05:17:11.193Z,0.00
2018-12-18T05:18:11.689Z,0.00
2018-12-18T05:19:12.230Z,0.00
2018-12-18T05:20:12.736Z,0.00
2018-12-18T05:21:13.283Z,0.00
2018-12-18T05:22:13.748Z,0.00
2018-12-18T05:23:14.307Z,0.00
2018-12-18T05:24:14.794Z,0.00
2018-12-18T05:25:15.350Z,0.00
2018-12-18T05:26:15.837Z,0.00
2018-12-18T05:27:16.381Z,0.00
2018-12-18T05:28:16.874Z,0.00
2018-12-18T05:29:17.424Z,0.00
2018-12-18T05:30:17.910Z,0.00
2018-12-18T05:31:18.449Z,0.00
2018-12-18T05:32:18.950Z,0.00
2018-12-18T05:33:19.495Z,0.00
2018-12-18T05:34:20.024Z,0.00
2018-12-18T05:35:20.533Z,0.00
2018-12-18T05:36:21.013Z,0.00
2018-12-18T05:37:21.581Z,0.00
2018-12-18T05:38:22.067Z,0.00
2018-12-18T05:39:23.627Z,0.00
2018-12-18T05:40:24.123Z,0.00
2018-12-18T05:41:25.679Z,0.00
2018-12-18T05:42:26.188Z,0.00
2018-12-18T05:43:26.719Z,0.00
2018-12-18T05:44:27.229Z,0.00
2018-12-18T05:45:27.761Z,0.00
2018-12-18T05:46:28.257Z,0.00
2018-12-18T05:47:28.805Z,0.00
2018-12-18T05:48:29.302Z,0.00
2018-12-18T05:49:30.862Z,0.00
2018-12-18T05:50:30.335Z,0.00
2018-12-18T05:51:30.883Z,0.00
2018-12-18T05:52:31.381Z,0.00
2018-12-18T05:53:31.918Z,0.00
2018-12-18T05:54:32.414Z,0.00
2018-12-18T05:55:32.952Z,0.00
2018-12-18T05:56:33.435Z,0.00
2018-12-18T05:57:34.015Z,0.00
2018-12-18T05:58:34.478Z,0.00
2018-12-18T05:59:35.037Z,0.00
2018-12-18T06:00:35.528Z,0.00
2018-12-18T06:01:36.069Z,0.00
2018-12-18T06:02:36.556Z,0.00
2018-12-18T06:03:37.101Z,0.00
2018-12-18T06:04:37.616Z,0.00
2018-12-18T06:05:38.131Z,0.00
2018-12-18T06:06:38.695Z,0.00
2018-12-18T06:07:39.164Z,0.00
2018-12-18T06:08:39.670Z,0.00
2018-12-18T06:09:41.251Z,0.00
2018-12-18T06:10:41.745Z,0.00
2018-12-18T06:11:42.257Z,0.00
2018-12-18T06:12:42.777Z,0.00
2018-12-18T06:13:43.335Z,0.00
2018-12-18T06:14:43.812Z,0.00
2018-12-18T06:15:44.350Z,0.00
2018-12-18T06:16:44.842Z,0.00
2018-12-18T06:17:46.411Z,0.00
2018-12-18T06:18:46.904Z,0.00
2018-12-18T06:19:48.485Z,0.00
2018-12-18T06:20:48.976Z,0.00
2018-12-18T06:21:49.502Z,0.00
2018-12-18T06:22:50.124Z,0.00
2018-12-18T06:23:50.592Z,0.00
2018-12-18T06:24:51.039Z,0.00
2018-12-18T06:25:51.582Z,0.00
2018-12-18T06:26:52.107Z,0.00
2018-12-18T06:27:52.655Z,0.00
2018-12-18T06:28:53.141Z,0.00
2018-12-18T06:29:53.707Z,0.00
2018-12-18T06:30:54.155Z,0.00
2018-12-18T06:31:55.451Z,0.00
2018-12-18T06:32:55.192Z,0.00
2018-12-18T06:33:55.772Z,0.00
2018-12-18T06:34:56.212Z,0.00
2018-12-18T06:35:56.772Z,0.00
2018-12-18T06:36:57.266Z,0.00
2018-12-18T06:37:57.798Z,0.00
2018-12-18T06:38:58.281Z,0.00
2018-12-18T06:39:58.852Z,0.00
2018-12-18T06:40:59.329Z,0.00
2018-12-18T06:42:00.895Z,0.00
2018-12-18T06:43:01.405Z,0.00
2018-12-18T06:44:01.947Z,0.00
2018-12-18T06:45:02.494Z,0.00
2018-12-18T06:46:03.990Z,0.00
2018-12-18T06:47:04.511Z,0.00
2018-12-18T06:48:05.034Z,0.00
2018-12-18T06:49:05.517Z,0.00
2018-12-18T06:50:06.068Z,0.00
2018-12-18T06:51:06.556Z,0.00
2018-12-18T06:52:08.132Z,0.00
2018-12-18T06:53:08.609Z,0.00
2018-12-18T06:54:09.160Z,0.00
2018-12-18T06:55:09.660Z,0.00
2018-12-18T06:56:11.224Z,0.00
2018-12-18T06:57:11.727Z,0.00
2018-12-18T06:58:12.266Z,0.00
2018-12-18T06:59:12.768Z,0.00
2018-12-18T07:00:13.331Z,0.00
2018-12-18T07:01:13.799Z,0.00
2018-12-18T07:02:14.355Z,0.00
2018-12-18T07:03:14.863Z,0.00
2018-12-18T07:04:15.383Z,0.00
2018-12-18T07:05:16.851Z,0.00
2018-12-18T07:06:16.404Z,0.00
2018-12-18T07:07:16.918Z,0.00
2018-12-18T07:08:17.659Z,0.00
2018-12-18T07:09:18.139Z,0.00
2018-12-18T07:10:18.691Z,0.00
2018-12-18T07:11:19.161Z,0.00
2018-12-18T07:12:19.725Z,0.00
2018-12-18T07:13:20.197Z,4.00
2018-12-18T07:14:20.791Z,0.00
2018-12-18T07:15:21.265Z,4.00
2018-12-18T07:16:22.817Z,0.00
2018-12-18T07:17:23.322Z,0.00
2018-12-18T07:18:23.856Z,0.00
2018-12-18T07:19:24.361Z,0.00
2018-12-18T07:20:24.904Z,0.00
2018-12-18T07:21:25.389Z,4.00
2018-12-18T07:22:25.943Z,4.00
2018-12-18T07:23:26.426Z,4.00
2018-12-18T07:24:27.012Z,4.00
2018-12-18T07:25:27.467Z,4.00
2018-12-18T07:26:28.011Z,4.00
2018-12-18T07:27:28.652Z,4.00
2018-12-18T07:28:29.056Z,8.00
2018-12-18T07:29:29.600Z,8.00
2018-12-18T07:30:30.085Z,4.00
2018-12-18T07:31:30.556Z,8.00
2018-12-18T07:32:32.510Z,12.00
2018-12-18T07:33:33.027Z,8.00
2018-12-18T07:34:33.555Z,8.00
2018-12-18T07:35:34.073Z,12.00
2018-12-18T07:36:34.573Z,16.00
2018-12-18T07:37:36.146Z,12.00
2018-12-18T07:38:36.596Z,16.00
2018-12-18T07:39:37.082Z,20.00
2018-12-18T07:40:37.588Z,20.00
2018-12-18T07:41:38.040Z,20.00
2018-12-18T07:42:38.565Z,20.00
2018-12-18T07:43:39.044Z,24.00
2018-12-18T07:44:40.676Z,24.00
2018-12-18T07:45:41.190Z,24.00
2018-12-18T07:46:41.826Z,28.00
2018-12-18T07:47:42.303Z,28.00
2018-12-18T07:48:42.860Z,28.00
2018-12-18T07:49:43.329Z,32.00
2018-12-18T07:50:43.889Z,32.00
2018-12-18T07:51:44.369Z,32.00
2018-12-18T07:52:44.855Z,36.00
2018-12-18T07:53:45.459Z,40.00
2018-12-18T07:54:45.949Z,40.00
2018-12-18T07:55:47.460Z,40.00
2018-12-18T07:56:47.951Z,44.00
2018-12-18T07:57:48.408Z,44.00
2018-12-18T07:58:51.037Z,52.00
2018-12-18T07:59:51.468Z,48.00
2018-12-18T08:00:59.767Z,52.00
2018-12-18T08:02:00.248Z,56.00
2018-12-18T08:03:00.759Z,60.00
2018-12-18T08:04:01.216Z,60.00
2018-12-18T08:05:01.700Z,64.00
2018-12-18T08:06:02.266Z,68.00
2018-12-18T08:07:02.755Z,68.00
2018-12-18T08:08:03.315Z,72.00
2018-12-18T08:09:03.794Z,76.00
2018-12-18T08:10:04.327Z,80.00
2018-12-18T08:11:04.833Z,84.00
2018-12-18T08:12:05.375Z,92.00
2018-12-18T08:13:05.861Z,92.00
2018-12-18T08:14:14.200Z,104.00
2018-12-18T08:15:14.689Z,124.00
2018-12-18T08:16:15.164Z,144.00
2018-12-18T08:17:15.734Z,160.00
2018-12-18T08:18:16.882Z,168.00
2018-12-18T08:19:17.411Z,176.00
2018-12-18T08:20:17.890Z,180.00
2018-12-18T08:21:19.478Z,184.00
2018-12-18T08:22:19.988Z,184.00
2018-12-18T08:23:20.486Z,188.00
2018-12-18T08:24:20.982Z,184.00
2018-12-18T08:25:21.555Z,184.00
2018-12-18T08:26:22.026Z,176.00
2018-12-18T08:27:24.204Z,172.00
2018-12-18T08:28:32.324Z,168.00
2018-12-18T08:29:32.792Z,160.00
2018-12-18T08:30:33.276Z,156.00
2018-12-18T08:31:33.951Z,160.00
2018-12-18T08:32:34.460Z,168.00
2018-12-18T08:33:34.933Z,180.00
2018-12-18T08:34:37.471Z,188.00
2018-12-18T08:35:37.990Z,200.00
2018-12-18T08:36:39.535Z,204.00
2018-12-18T08:37:40.168Z,208.00
2018-12-18T08:38:41.695Z,220.00
2018-12-18T08:39:42.327Z,224.00
2018-12-18T08:40:42.941Z,232.00
2018-12-18T08:41:43.630Z,236.00
2018-12-18T08:42:44.484Z,236.00
2018-12-18T08:43:45.160Z,228.00
2018-12-18T08:44:46.841Z,224.00
2018-12-18T08:45:47.984Z,224.00
2018-12-18T08:46:49.089Z,216.00
2018-12-18T08:47:49.594Z,212.00
2018-12-18T08:48:50.346Z,212.00
2018-12-18T08:49:51.228Z,212.00
2018-12-18T08:50:53.943Z,232.00
2018-12-18T08:51:54.590Z,240.00
2018-12-18T08:52:55.293Z,260.00
2018-12-18T08:53:55.926Z,260.00
2018-12-18T08:54:56.633Z,276.00
2018-12-18T08:55:57.280Z,272.00
2018-12-18T08:56:57.981Z,280.00
2018-12-18T08:57:58.650Z,300.00
2018-12-18T08:58:59.319Z,324.00
2018-12-18T08:59:59.970Z,336.00
2018-12-18T09:01:00.765Z,340.00
2018-12-18T09:02:01.412Z,344.00
2018-12-18T09:03:02.102Z,348.00
2018-12-18T09:04:02.754Z,344.00
2018-12-18T09:05:03.447Z,344.00
2018-12-18T09:06:04.102Z,344.00
2018-12-18T09:07:04.844Z,348.00
2018-12-18T09:08:05.446Z,352.00
2018-12-18T09:09:06.146Z,352.00
2018-12-18T09:10:06.848Z,360.00
2018-12-18T09:11:07.510Z,364.00
2018-12-18T09:12:08.181Z,376.00
2018-12-18T09:13:08.817Z,384.00
2018-12-18T09:14:09.454Z,392.00
2018-12-18T09:15:10.214Z,396.00
2018-12-18T09:16:10.877Z,400.00
2018-12-18T09:17:11.540Z,400.00
2018-12-18T09:18:12.192Z,404.00
2018-12-18T09:19:12.847Z,412.00
2018-12-18T09:20:13.617Z,424.00
2018-12-18T09:21:14.298Z,420.00
2018-12-18T09:22:14.936Z,428.00
2018-12-18T09:23:16.082Z,424.00
2018-12-18T09:24:16.735Z,452.00
2018-12-18T09:25:17.373Z,464.00
2018-12-18T09:26:18.158Z,476.00
2018-12-18T09:27:18.821Z,488.00
2018-12-18T09:28:19.479Z,496.00
2018-12-18T09:29:20.117Z,504.00
2018-12-18T09:30:20.775Z,512.00
2018-12-18T09:31:21.421Z,520.00
2018-12-18T09:32:22.086Z,524.00
2018-12-18T09:33:22.735Z,528.00
2018-12-18T09:34:23.409Z,544.00
2018-12-18T09:35:24.041Z,544.00
2018-12-18T09:36:24.833Z,560.00
2018-12-18T09:37:25.488Z,564.00
2018-12-18T09:38:26.099Z,584.00
2018-12-18T09:39:26.777Z,588.00
2018-12-18T09:40:27.422Z,548.00
2018-12-18T09:41:28.090Z,516.00
2018-12-18T09:42:28.702Z,508.00
2018-12-18T09:43:29.409Z,576.00
2018-12-18T09:44:30.018Z,588.00
2018-12-18T09:45:30.668Z,568.00
2018-12-18T09:46:31.304Z,564.00
2018-12-18T09:47:31.959Z,620.00
2018-12-18T09:48:32.615Z,632.00
2018-12-18T09:49:33.239Z,568.00
2018-12-18T09:50:33.905Z,460.00
2018-12-18T09:51:34.550Z,508.00
2018-12-18T09:52:35.211Z,632.00
2018-12-18T09:53:35.857Z,648.00
2018-12-18T09:54:36.531Z,644.00
2018-12-18T09:55:37.184Z,584.00
2018-12-18T09:56:37.813Z,632.00
2018-12-18T09:57:38.480Z,656.00
2018-12-18T09:58:39.120Z,644.00
2018-12-18T09:59:39.773Z,708.00
2018-12-18T10:00:40.422Z,700.00
2018-12-18T10:01:41.119Z,588.00
2018-12-18T10:02:41.739Z,524.00
2018-12-18T10:03:42.393Z,576.00
2018-12-18T10:04:43.030Z,644.00
2018-12-18T10:05:43.834Z,668.00
2018-12-18T10:06:45.209Z,660.00
2018-12-18T10:07:45.136Z,652.00
2018-12-18T10:08:45.788Z,624.00
2018-12-18T10:09:46.426Z,636.00
2018-12-18T10:10:47.086Z,568.00
2018-12-18T10:11:47.739Z,576.00
2018-12-18T10:12:48.400Z,588.00
2018-12-18T10:13:49.049Z,608.00
2018-12-18T10:14:49.808Z,612.00
2018-12-18T10:15:50.468Z,624.00
2018-12-18T10:16:51.151Z,572.00
2018-12-18T10:17:51.819Z,496.00
2018-12-18T10:18:54.573Z,456.00
2018-12-18T10:19:55.220Z,568.00
2018-12-18T10:20:56.010Z,664.00
2018-12-18T10:21:56.691Z,684.00
2018-12-18T10:22:58.366Z,648.00
2018-12-18T10:23:59.028Z,640.00
2018-12-18T10:24:59.813Z,660.00
2018-12-18T10:26:00.471Z,632.00
2018-12-18T10:27:01.260Z,536.00
2018-12-18T10:28:01.911Z,520.00
2018-12-18T10:29:04.661Z,556.00
2018-12-18T10:30:05.306Z,576.00
2018-12-18T10:31:08.053Z,564.00
2018-12-18T10:32:08.663Z,536.00
2018-12-18T10:33:10.360Z,520.00
2018-12-18T10:34:11.031Z,628.00
2018-12-18T10:35:11.741Z,628.00
2018-12-18T10:36:12.311Z,460.00
2018-12-18T10:37:12.974Z,504.00
2018-12-18T10:38:13.618Z,568.00
2018-12-18T10:39:14.283Z,640.00
2018-12-18T10:40:14.921Z,664.00
2018-12-18T10:41:15.685Z,656.00
2018-12-18T10:42:16.377Z,652.00
2018-12-18T10:43:17.079Z,668.00
2018-12-18T10:44:17.647Z,692.00
2018-12-18T10:45:25.321Z,700.00
2018-12-18T10:46:25.950Z,692.00
2018-12-18T10:47:26.647Z,692.00
2018-12-18T10:48:27.308Z,696.00
2018-12-18T10:49:27.999Z,708.00
2018-12-18T10:50:28.683Z,700.00
2018-12-18T10:51:38.255Z,692.00
2018-12-18T10:52:38.901Z,616.00
2018-12-18T10:53:39.554Z,576.00
2018-12-18T10:54:40.216Z,672.00
2018-12-18T10:55:41.973Z,732.00
2018-12-18T10:56:42.643Z,756.00
2018-12-18T10:57:43.310Z,780.00
2018-12-18T10:58:43.918Z,848.00
2018-12-18T10:59:44.550Z,1024.00
2018-12-18T11:00:45.121Z,1184.00
2018-12-18T11:01:46.815Z,1192.00
2018-12-18T11:02:47.391Z,1112.00
2018-12-18T11:03:48.051Z,984.00
2018-12-18T11:04:48.664Z,912.00
2018-12-18T11:05:49.279Z,976.00
2018-12-18T11:06:49.876Z,1036.00
2018-12-18T11:07:50.526Z,1000.00
2018-12-18T11:08:51.150Z,980.00
2018-12-18T11:09:52.777Z,904.00
2018-12-18T11:10:53.398Z,936.00
2018-12-18T11:11:54.225Z,924.00
2018-12-18T11:12:54.806Z,952.00
2018-12-18T11:13:55.535Z,952.00
2018-12-18T11:14:56.133Z,920.00
2018-12-18T11:15:56.741Z,852.00
2018-12-18T11:16:57.357Z,836.00
2018-12-18T11:17:57.932Z,836.00
2018-12-18T11:18:58.548Z,900.00
2018-12-18T11:19:59.276Z,920.00
2018-12-18T11:20:59.869Z,892.00
2018-12-18T11:22:00.555Z,820.00
2018-12-18T11:23:01.164Z,804.00
2018-12-18T11:24:09.757Z,800.00
2018-12-18T11:25:10.339Z,824.00
2018-12-18T11:26:11.071Z,836.00
2018-12-18T11:27:11.842Z,816.00
2018-12-18T11:28:27.376Z,840.00
2018-12-18T11:29:27.975Z,872.00
2018-12-18T11:30:28.593Z,836.00
2018-12-18T11:31:29.156Z,812.00
2018-12-18T11:32:46.867Z,780.00
2018-12-18T11:33:47.474Z,760.00
2018-12-18T11:34:48.216Z,760.00
2018-12-18T11:35:48.839Z,636.00
2018-12-18T11:36:57.339Z,596.00
2018-12-18T11:37:57.928Z,640.00
2018-12-18T11:38:59.224Z,680.00
2018-12-18T11:39:59.829Z,692.00
2018-12-18T11:41:00.537Z,692.00
2018-12-18T11:42:01.190Z,716.00
2018-12-18T11:43:01.894Z,732.00
2018-12-18T11:44:02.330Z,740.00
2018-12-18T11:45:05.080Z,752.00
2018-12-18T11:46:05.679Z,776.00
2018-12-18T11:47:07.470Z,764.00
2018-12-18T11:48:08.042Z,756.00
2018-12-18T11:49:08.780Z,756.00
2018-12-18T11:50:09.383Z,716.00
2018-12-18T11:51:18.831Z,708.00
2018-12-18T11:52:20.693Z,732.00
2018-12-18T11:53:21.205Z,732.00
2018-12-18T11:54:21.807Z,720.00
2018-12-18T11:55:22.542Z,680.00
2018-12-18T11:56:23.163Z,652.00
2018-12-18T11:57:38.843Z,620.00
2018-12-18T11:58:39.496Z,600.00
2018-12-18T12:00:51.436Z,580.00
2018-12-18T12:01:53.114Z,564.00
2018-12-18T12:02:53.927Z,564.00
2018-12-18T12:03:55.576Z,552.00
2018-12-18T12:04:56.167Z,536.00
2018-12-18T12:05:58.890Z,520.00
2018-12-18T12:06:59.467Z,520.00
2018-12-18T12:08:00.088Z,520.00
2018-12-18T12:09:01.749Z,524.00
2018-12-18T12:10:02.359Z,556.00
2018-12-18T12:11:02.893Z,564.00
2018-12-18T12:12:03.529Z,576.00
2018-12-18T12:13:04.139Z,584.00
2018-12-18T12:14:04.730Z,588.00
2018-12-18T12:15:06.387Z,608.00
2018-12-18T12:16:07.000Z,608.00
2018-12-18T12:17:07.659Z,600.00
2018-12-18T12:18:08.249Z,604.00
2018-12-18T12:19:08.875Z,580.00
2018-12-18T12:20:09.488Z,548.00
2018-12-18T12:21:11.245Z,536.00
2018-12-18T12:22:11.849Z,536.00
2018-12-18T12:23:12.459Z,520.00
2018-12-18T12:24:14.138Z,500.00
2018-12-18T12:25:14.740Z,496.00
2018-12-18T12:26:15.326Z,480.00
2018-12-18T12:27:16.002Z,476.00
2018-12-18T12:28:16.619Z,472.00
2018-12-18T12:29:17.194Z,472.00
2018-12-18T12:30:17.882Z,468.00
2018-12-18T12:31:18.478Z,460.00
2018-12-18T12:32:20.138Z,460.00
2018-12-18T12:33:20.742Z,456.00
2018-12-18T12:34:22.393Z,456.00
2018-12-18T12:35:23.000Z,452.00
2018-12-18T12:36:29.450Z,448.00
2018-12-18T12:37:25.286Z,444.00
2018-12-18T12:38:26.012Z,436.00
2018-12-18T12:39:26.641Z,432.00
2018-12-18T12:40:29.763Z,432.00
2018-12-18T12:41:29.974Z,428.00
2018-12-18T12:42:30.639Z,424.00
2018-12-18T12:43:33.319Z,420.00
2018-12-18T12:44:34.007Z,416.00
2018-12-18T12:45:34.676Z,408.00
2018-12-18T12:46:50.397Z,404.00
2018-12-18T12:47:51.034Z,396.00
2018-12-18T12:48:51.801Z,388.00
2018-12-18T12:49:52.294Z,380.00
2018-12-18T12:50:53.031Z,376.00
2018-12-18T12:51:53.709Z,376.00
2018-12-18T12:52:54.395Z,368.00
2018-12-18T12:53:55.067Z,368.00
2018-12-18T12:54:56.756Z,360.00
2018-12-18T12:55:57.430Z,360.00
2018-12-18T12:56:58.068Z,352.00
2018-12-18T12:58:00.830Z,356.00
2018-12-18T12:59:01.429Z,352.00
2018-12-18T13:00:08.765Z,348.00
2018-12-18T13:01:09.472Z,344.00
2018-12-18T13:02:10.100Z,344.00
2018-12-18T13:03:10.752Z,348.00
2018-12-18T13:04:11.495Z,348.00
2018-12-18T13:05:12.158Z,344.00
2018-12-18T13:06:13.817Z,348.00
2018-12-18T13:07:14.483Z,344.00
2018-12-18T13:08:15.184Z,348.00
2018-12-18T13:09:15.881Z,360.00
2018-12-18T13:10:18.564Z,360.00